Bagdad, AZ (86321)

1:16 PM MST on July 23, 2014 (GMT -0700)
Love (KPRC) Elev 5043 ft | 34.65 °N, 112.42 °W | Change Station

Current weather conditions updated 23 minutes ago

Overcast
Overcast
95 °F
Feels Like 95 °F
N
8
Wind Variable Wind from North

Today is forecast to be nearly the same temperature as yesterday.

Today
High -- | Low -- °F
--% Chance of Precip.
Yesterday
High -- | Low -- °F
Precip. -- in
5:36 AM 7:41 PM
Waning Crescent, 9% visible
Pressure 29.93 in
Visibility 10.0 miles
Clouds Mostly Cloudy 11000 ft
Dew Point 37 °F
Humidity 13%
Rainfall 0.00 in
Snow Depth Not available.
UV 7 out of 12
Pollen 4.90 out of 12
Air Quality Not available.
Flu Activity Not available.
METAR KPRC 231953Z 36007KT 10SM BKN110TCU 35/03 A3023 RMK AO2 SLP135 TCU ALQDS T03500028

More Conditions Fewer Conditions

Pressure 29.93 in
Visibility 10.0 miles
Clouds Mostly Cloudy 11000 ft
Dew Point 37 °F
Humidity 13%
Rainfall 0.00 in
Snow Depth Not available.
UV 7 out of 12
Pollen 4.90 out of 12
Air Quality Not available.
Flu Activity Not available.
METAR KPRC 231953Z 36007KT 10SM BKN110TCU 35/03 A3023 RMK AO2 SLP135 TCU ALQDS T03500028

More Conditions Fewer Conditions

10-Day Weather Forecast

Almanac

Astronomy

Jul. 23, 2014 Rise Set
Actual Time 5:36 AM MST 7:41 PM MST
Civil Twilight 5:08 AM MST 8:09 PM MST
Nautical Twilight 4:33 AM MST 8:43 PM MST
Astronomical Twilight 3:56 AM MST 9:20 PM MST
Moon 2:57 AM MST 5:14 PM MST
Length of Visible Light 15h 01m
Length of Day
14h 04m
Tomorrow will be 1m 23s shorter.
Waning Crescent, 9% of the Moon is Illuminated
Today
Waning Crescent
Jul 26
New
Aug 3
First Quarter
Aug 10
Full
Aug 17
Last Quarter

Today's Extremes

State Highs State Lows

Community

WunderPhotos

Upload Photos

1,736,755 photos uploaded!

Nearby

Snow Depth

Station Depth Elevation
Snowslide Canyon 0 in 9730 ft
Workman Creek 1 in 6900 ft

Earthquake Activity

City Distance Mag. Time & Date
No recent earthquake activity has been reported nearby.
Minimum magnitude displayed is 2.5.

Coastal Water Temperatures

Place Temperature
No Stations Reporting

Nearby Weather Stations

Station Location Temp. Heat Index Dew Point Humidity Wind Precip. Elev Updated Type
MesoWest Hillside , Skull Valley, AZ 99 °F 94 °F 41 °F 14% North  at  - 0.00 in / hr 3973 ft 12:46 PM MST MADIS
HADS BURRO CREEK AT U.S. 93 BRIDGE , Bagdad, AZ 108 °F 99 °F - - North  at  - 0.00 in / hr 1911 ft 12:15 PM MST MADIS

Show More Stations Show Fewer Stations